GXA420 KELP-KIWA
Flight info
| Callsign | GXA420 |
|---|---|
| Flight time | N/A |
| Altitude | 34000 |
| Route | SSO SUNSS8 |
| Aircraft | A321/M-SDE3FGHIRWY/LB1 |
Departure
| Time | 2026-04-21 01:13 |
|---|---|
| Airport | El Paso International Airport (KELP) |
Arrival
| Time | N/A |
|---|---|
| Airport | Mesa Gateway Airport (KIWA) |
| Time | Latitude | Longitude | Altitude | Speed | Heading |
|---|---|---|---|---|---|
| 2026-04-21 00:43 | 31.79776 | -106.37633 | 3952 ft | 0 kts | 226° |
| 2026-04-21 01:07 | 31.79769 | -106.37645 | 3951 ft | 7 kts | 243° |
| 2026-04-21 01:07 | 31.79806 | -106.37683 | 3950 ft | 10 kts | 352° |
| 2026-04-21 01:07 | 31.79889 | -106.37700 | 3949 ft | 12 kts | 328° |
| 2026-04-21 01:07 | 31.79916 | -106.37754 | 3948 ft | 7 kts | 342° |
| 2026-04-21 01:08 | 31.79981 | -106.37763 | 3948 ft | 10 kts | 329° |
| 2026-04-21 01:08 | 31.79986 | -106.37833 | 3948 ft | 11 kts | 272° |
| 2026-04-21 01:08 | 31.79992 | -106.37950 | 3948 ft | 17 kts | 273° |
| 2026-04-21 01:08 | 31.79993 | -106.38103 | 3944 ft | 20 kts | 271° |
| 2026-04-21 01:09 | 31.79993 | -106.38278 | 3942 ft | 19 kts | 270° |
| 2026-04-21 01:09 | 31.79993 | -106.38439 | 3942 ft | 20 kts | 269° |
| 2026-04-21 01:09 | 31.79991 | -106.38613 | 3938 ft | 23 kts | 270° |
| 2026-04-21 01:09 | 31.79991 | -106.38791 | 3937 ft | 22 kts | 269° |
| 2026-04-21 01:10 | 31.79989 | -106.38880 | 3937 ft | 19 kts | 268° |
| 2026-04-21 01:10 | 31.80000 | -106.39036 | 3937 ft | 18 kts | 306° |
| 2026-04-21 01:10 | 31.80090 | -106.39134 | 3938 ft | 18 kts | 307° |
| 2026-04-21 01:10 | 31.80155 | -106.39240 | 3946 ft | 13 kts | 311° |
| 2026-04-21 01:11 | 31.80203 | -106.39303 | 3953 ft | 8 kts | 312° |
| 2026-04-21 01:11 | 31.80239 | -106.39347 | 3958 ft | 10 kts | 315° |
| 2026-04-21 01:11 | 31.80311 | -106.39429 | 3960 ft | 16 kts | 315° |
| 2026-04-21 01:11 | 31.80382 | -106.39513 | 3969 ft | 14 kts | 313° |
| 2026-04-21 01:12 | 31.80457 | -106.39557 | 3968 ft | 13 kts | 25° |
| 2026-04-21 01:12 | 31.80521 | -106.39472 | 3967 ft | 15 kts | 51° |
| 2026-04-21 01:12 | 31.80642 | -106.39304 | 3963 ft | 52 kts | 49° |
| 2026-04-21 01:12 | 31.81033 | -106.38762 | 3961 ft | 119 kts | 50° |
| 2026-04-21 01:13 | 31.81703 | -106.37828 | 3949 ft | 178 kts | 50° |
| 2026-04-21 01:13 | 31.82565 | -106.36634 | 4399 ft | 194 kts | 50° |
| 2026-04-21 01:13 | 31.83443 | -106.35446 | 5263 ft | 191 kts | 50° |
| 2026-04-21 01:13 | 31.84334 | -106.34333 | 6102 ft | 187 kts | 48° |
| 2026-04-21 01:14 | 31.85257 | -106.33127 | 6445 ft | 208 kts | 50° |
| 2026-04-21 01:14 | 31.86260 | -106.31791 | 6572 ft | 228 kts | 50° |
| 2026-04-21 01:14 | 31.87407 | -106.30397 | 6681 ft | 247 kts | 38° |
| 2026-04-21 01:14 | 31.89062 | -106.29609 | 6810 ft | 273 kts | 5° |
| 2026-04-21 01:15 | 31.90947 | -106.30022 | 7119 ft | 288 kts | 330° |
| 2026-04-21 01:15 | 31.92381 | -106.31642 | 7661 ft | 290 kts | 297° |
| 2026-04-21 01:15 | 31.92988 | -106.33891 | 8331 ft | 289 kts | 280° |
| 2026-04-21 01:15 | 31.93323 | -106.36192 | 9051 ft | 289 kts | 277° |
| 2026-04-21 01:16 | 31.93594 | -106.38570 | 9785 ft | 289 kts | 276° |
| 2026-04-21 01:16 | 31.93843 | -106.40922 | 10200 ft | 302 kts | 276° |
| 2026-04-21 01:16 | 31.94115 | -106.43447 | 10480 ft | 316 kts | 276° |
| 2026-04-21 01:16 | 31.94413 | -106.46032 | 11037 ft | 321 kts | 277° |
| 2026-04-21 01:17 | 31.94730 | -106.48643 | 11654 ft | 323 kts | 277° |
| 2026-04-21 01:17 | 31.95057 | -106.51269 | 12282 ft | 325 kts | 277° |
| 2026-04-21 01:17 | 31.95393 | -106.53911 | 12972 ft | 327 kts | 278° |
| 2026-04-21 01:17 | 31.95735 | -106.56571 | 13591 ft | 330 kts | 278° |
| 2026-04-21 01:18 | 31.96081 | -106.59253 | 14204 ft | 332 kts | 278° |
| 2026-04-21 01:18 | 31.96427 | -106.61952 | 14775 ft | 335 kts | 278° |
| 2026-04-21 01:18 | 31.96771 | -106.64671 | 15356 ft | 337 kts | 278° |
| 2026-04-21 01:18 | 31.97116 | -106.67407 | 15925 ft | 339 kts | 278° |
| 2026-04-21 01:19 | 31.97463 | -106.70160 | 16489 ft | 341 kts | 278° |
| 2026-04-21 01:19 | 31.97811 | -106.72931 | 17045 ft | 343 kts | 278° |
| 2026-04-21 01:19 | 31.98159 | -106.75720 | 17591 ft | 345 kts | 278° |
| 2026-04-21 01:19 | 31.98506 | -106.78526 | 18138 ft | 347 kts | 278° |
| 2026-04-21 01:20 | 31.98856 | -106.81350 | 18628 ft | 350 kts | 278° |
| 2026-04-21 01:20 | 31.99211 | -106.84195 | 19082 ft | 352 kts | 278° |
| 2026-04-21 01:20 | 31.99568 | -106.87058 | 19531 ft | 354 kts | 278° |
| 2026-04-21 01:20 | 31.99925 | -106.89938 | 19927 ft | 356 kts | 278° |
| 2026-04-21 01:21 | 32.00285 | -106.92834 | 20387 ft | 358 kts | 278° |
| 2026-04-21 01:21 | 32.00646 | -106.95749 | 20839 ft | 361 kts | 278° |
| 2026-04-21 01:21 | 32.01010 | -106.98695 | 21281 ft | 364 kts | 278° |
| 2026-04-21 01:21 | 32.01272 | -107.00828 | 21600 ft | 365 kts | 278° |
| 2026-04-21 01:22 | 32.01489 | -107.02594 | 21863 ft | 367 kts | 278° |
| 2026-04-21 01:22 | 32.01853 | -107.05579 | 22311 ft | 369 kts | 278° |
| 2026-04-21 01:22 | 32.02218 | -107.08579 | 22761 ft | 371 kts | 278° |
| 2026-04-21 01:22 | 32.02585 | -107.11590 | 23194 ft | 372 kts | 279° |
| 2026-04-21 01:23 | 32.02958 | -107.14629 | 23588 ft | 375 kts | 279° |
| 2026-04-21 01:23 | 32.03330 | -107.17680 | 23918 ft | 377 kts | 279° |
| 2026-04-21 01:23 | 32.03703 | -107.20751 | 24263 ft | 379 kts | 279° |
| 2026-04-21 01:23 | 32.04077 | -107.23837 | 24606 ft | 381 kts | 279° |
| 2026-04-21 01:24 | 32.04451 | -107.26939 | 24943 ft | 383 kts | 279° |
| 2026-04-21 01:24 | 32.04818 | -107.30012 | 25270 ft | 385 kts | 279° |
| 2026-04-21 01:24 | 32.05194 | -107.33153 | 25601 ft | 387 kts | 279° |
| 2026-04-21 01:24 | 32.05575 | -107.36302 | 25935 ft | 389 kts | 279° |
| 2026-04-21 01:25 | 32.05959 | -107.39474 | 26270 ft | 391 kts | 279° |
| 2026-04-21 01:25 | 32.06343 | -107.42655 | 26622 ft | 393 kts | 279° |
| 2026-04-21 01:25 | 32.06726 | -107.45847 | 26955 ft | 395 kts | 279° |
| 2026-04-21 01:25 | 32.07111 | -107.49059 | 27289 ft | 397 kts | 279° |
| 2026-04-21 01:26 | 32.07495 | -107.52284 | 27621 ft | 398 kts | 279° |
| 2026-04-21 01:26 | 32.07881 | -107.55527 | 27952 ft | 400 kts | 279° |
| 2026-04-21 01:26 | 32.08267 | -107.58786 | 28277 ft | 402 kts | 279° |
| 2026-04-21 01:26 | 32.08653 | -107.62064 | 28591 ft | 404 kts | 279° |
| 2026-04-21 01:27 | 32.09039 | -107.65353 | 28901 ft | 406 kts | 279° |
| 2026-04-21 01:27 | 32.09426 | -107.68662 | 29216 ft | 408 kts | 279° |
| 2026-04-21 01:27 | 32.09810 | -107.71944 | 29517 ft | 410 kts | 280° |
| 2026-04-21 01:27 | 32.10203 | -107.75283 | 29790 ft | 412 kts | 279° |
| 2026-04-21 01:28 | 32.10594 | -107.78633 | 30153 ft | 412 kts | 279° |
| 2026-04-21 01:28 | 32.10983 | -107.81985 | 30341 ft | 412 kts | 279° |
| 2026-04-21 01:28 | 32.11371 | -107.85334 | 30638 ft | 412 kts | 279° |
| 2026-04-21 01:28 | 32.11757 | -107.88681 | 31032 ft | 409 kts | 279° |
| 2026-04-21 01:29 | 32.12137 | -107.91991 | 31479 ft | 406 kts | 279° |
| 2026-04-21 01:29 | 32.12514 | -107.95271 | 31929 ft | 402 kts | 278° |
| 2026-04-21 01:29 | 32.12890 | -107.98522 | 32376 ft | 398 kts | 278° |
| 2026-04-21 01:29 | 32.13263 | -108.01738 | 32819 ft | 394 kts | 278° |
| 2026-04-21 01:30 | 32.13634 | -108.04927 | 33245 ft | 390 kts | 278° |
| 2026-04-21 01:30 | 32.14001 | -108.08092 | 33686 ft | 387 kts | 278° |
| 2026-04-21 01:30 | 32.14359 | -108.11226 | 33912 ft | 385 kts | 278° |
| 2026-04-21 01:30 | 32.14707 | -108.14313 | 33950 ft | 372 kts | 278° |
| 2026-04-21 01:31 | 32.15035 | -108.17239 | 33946 ft | 358 kts | 278° |
| 2026-04-21 01:31 | 32.15358 | -108.20120 | 33946 ft | 352 kts | 278° |
| 2026-04-21 01:31 | 32.16004 | -108.25822 | 33948 ft | 350 kts | 278° |
| 2026-04-21 01:32 | 32.16542 | -108.30590 | 33947 ft | 349 kts | 278° |
| 2026-04-21 01:32 | 32.17182 | -108.36278 | 33971 ft | 349 kts | 278° |
| 2026-04-21 01:33 | 32.17809 | -108.41920 | 33993 ft | 349 kts | 278° |
| 2026-04-21 01:33 | 32.18439 | -108.47612 | 33989 ft | 350 kts | 278° |
| 2026-04-21 01:34 | 32.19070 | -108.53308 | 34016 ft | 350 kts | 278° |
| 2026-04-21 01:34 | 32.19704 | -108.59014 | 34039 ft | 350 kts | 278° |
| 2026-04-21 01:35 | 32.20328 | -108.64713 | 34057 ft | 350 kts | 278° |
| 2026-04-21 01:35 | 32.20949 | -108.70418 | 34068 ft | 350 kts | 278° |
| 2026-04-21 01:36 | 32.21578 | -108.76123 | 33923 ft | 351 kts | 278° |
| 2026-04-21 01:36 | 32.22202 | -108.81835 | 33905 ft | 351 kts | 278° |
| 2026-04-21 01:37 | 32.22817 | -108.87556 | 33905 ft | 351 kts | 278° |
| 2026-04-21 01:37 | 32.23427 | -108.93276 | 33925 ft | 351 kts | 278° |
| 2026-04-21 01:38 | 32.24038 | -108.99012 | 33906 ft | 352 kts | 278° |
| 2026-04-21 01:38 | 32.24656 | -109.04763 | 33903 ft | 353 kts | 278° |
| 2026-04-21 01:39 | 32.25269 | -109.10539 | 33903 ft | 354 kts | 278° |
| 2026-04-21 01:39 | 32.25867 | -109.16281 | 33886 ft | 355 kts | 278° |
| 2026-04-21 01:40 | 32.26478 | -109.22071 | 33892 ft | 355 kts | 278° |
| 2026-04-21 01:40 | 32.27287 | -109.27821 | 33896 ft | 354 kts | 286° |
| 2026-04-21 01:41 | 32.28664 | -109.33417 | 33890 ft | 355 kts | 286° |
| 2026-04-21 01:41 | 32.30040 | -109.39023 | 33890 ft | 355 kts | 286° |
| 2026-04-21 01:42 | 32.31408 | -109.44627 | 33896 ft | 355 kts | 286° |
| 2026-04-21 01:42 | 32.32761 | -109.50201 | 33891 ft | 355 kts | 285° |
| 2026-04-21 01:43 | 32.33630 | -109.53784 | 33887 ft | 356 kts | 285° |
| 2026-04-21 01:43 | 32.35013 | -109.59478 | 33884 ft | 356 kts | 285° |
| 2026-04-21 01:44 | 32.36368 | -109.65077 | 33887 ft | 356 kts | 285° |
| 2026-04-21 01:44 | 32.37727 | -109.70719 | 33908 ft | 357 kts | 286° |
| 2026-04-21 01:45 | 32.38398 | -109.73499 | 33868 ft | 338 kts | 286° |
| 2026-04-21 01:45 | 32.39029 | -109.76078 | 33851 ft | 317 kts | 286° |
| 2026-04-21 01:45 | 32.39643 | -109.78516 | 33775 ft | 301 kts | 287° |
| 2026-04-21 01:45 | 32.40248 | -109.80824 | 33636 ft | 287 kts | 287° |
| 2026-04-21 01:46 | 32.40871 | -109.83002 | 33413 ft | 273 kts | 289° |
| 2026-04-21 01:46 | 32.41540 | -109.85038 | 33190 ft | 258 kts | 292° |
| 2026-04-21 01:46 | 32.42285 | -109.86904 | 32916 ft | 244 kts | 297° |
| 2026-04-21 01:46 | 32.43077 | -109.88665 | 32216 ft | 244 kts | 293° |
| 2026-04-21 01:47 | 32.43764 | -109.90520 | 31380 ft | 247 kts | 292° |